sensor_id;sensor_type;location;lat;lon;timestamp;pressure;altitude;pressure_sealevel;temperature;humidity
74627;BME280;63132;52.268;5.192;2024-01-27T00:00:53;103217.59;;;12.91;43.94
74627;BME280;63132;52.268;5.192;2024-01-27T00:03:18;103219.28;;;12.80;44.15
74627;BME280;63132;52.268;5.192;2024-01-27T00:05:44;103218.50;;;12.80;43.95
74627;BME280;63132;52.268;5.192;2024-01-27T00:08:09;103230.16;;;12.69;44.62
74627;BME280;63132;52.268;5.192;2024-01-27T00:10:34;103230.94;;;12.86;43.90
74627;BME280;63132;52.268;5.192;2024-01-27T00:13:00;103236.16;;;12.71;44.43
74627;BME280;63132;52.268;5.192;2024-01-27T00:15:25;103233.31;;;12.84;44.39
74627;BME280;63132;52.268;5.192;2024-01-27T00:17:50;103235.72;;;12.85;44.33
74627;BME280;63132;52.268;5.192;2024-01-27T00:20:16;103236.25;;;12.91;43.64
74627;BME280;63132;52.268;5.192;2024-01-27T00:22:41;103229.25;;;12.97;43.86
74627;BME280;63132;52.268;5.192;2024-01-27T00:25:06;103228.28;;;12.89;44.04
74627;BME280;63132;52.268;5.192;2024-01-27T00:27:32;103229.91;;;12.74;44.70
74627;BME280;63132;52.268;5.192;2024-01-27T00:29:58;103232.38;;;12.95;44.09
74627;BME280;63132;52.268;5.192;2024-01-27T00:32:23;103241.09;;;12.78;44.62
74627;BME280;63132;52.268;5.192;2024-01-27T00:34:48;103228.06;;;12.98;43.58
74627;BME280;63132;52.268;5.192;2024-01-27T00:37:13;103227.75;;;12.84;44.00
74627;BME280;63132;52.268;5.192;2024-01-27T00:39:39;103229.16;;;12.93;43.88
74627;BME280;63132;52.268;5.192;2024-01-27T00:42:04;103221.81;;;12.85;44.42
74627;BME280;63132;52.268;5.192;2024-01-27T00:44:30;103232.28;;;12.92;44.42
74627;BME280;63132;52.268;5.192;2024-01-27T00:46:55;103229.63;;;12.48;45.71
74627;BME280;63132;52.268;5.192;2024-01-27T00:49:20;103235.34;;;12.87;44.10
74627;BME280;63132;52.268;5.192;2024-01-27T00:51:45;103229.41;;;12.88;43.89
74627;BME280;63132;52.268;5.192;2024-01-27T00:54:11;103234.47;;;12.83;43.99
74627;BME280;63132;52.268;5.192;2024-01-27T00:56:36;103236.81;;;12.49;45.70
74627;BME280;63132;52.268;5.192;2024-01-27T00:59:01;103228.47;;;12.65;45.43
74627;BME280;63132;52.268;5.192;2024-01-27T01:01:27;103229.59;;;12.80;44.36
74627;BME280;63132;52.268;5.192;2024-01-27T01:03:52;103238.31;;;12.78;43.94
74627;BME280;63132;52.268;5.192;2024-01-27T01:06:18;103237.50;;;12.78;44.09
74627;BME280;63132;52.268;5.192;2024-01-27T01:08:43;103234.13;;;12.68;44.59
74627;BME280;63132;52.268;5.192;2024-01-27T01:11:08;103237.25;;;12.67;44.53
74627;BME280;63132;52.268;5.192;2024-01-27T01:13:34;103219.22;;;12.77;44.08
74627;BME280;63132;52.268;5.192;2024-01-27T01:15:59;103235.63;;;12.66;44.49
74627;BME280;63132;52.268;5.192;2024-01-27T01:18:25;103234.31;;;12.60;44.83
74627;BME280;63132;52.268;5.192;2024-01-27T01:20:50;103250.19;;;12.75;44.29
74627;BME280;63132;52.268;5.192;2024-01-27T01:23:15;103251.16;;;12.83;44.58
74627;BME280;63132;52.268;5.192;2024-01-27T01:25:41;103253.59;;;12.53;44.29
74627;BME280;63132;52.268;5.192;2024-01-27T01:28:06;103249.34;;;12.43;44.47
74627;BME280;63132;52.268;5.192;2024-01-27T01:30:32;103241.38;;;12.41;45.07
74627;BME280;63132;52.268;5.192;2024-01-27T01:32:57;103249.31;;;12.27;45.39
74627;BME280;63132;52.268;5.192;2024-01-27T01:35:22;103252.84;;;12.24;45.01
74627;BME280;63132;52.268;5.192;2024-01-27T01:37:48;103240.44;;;12.22;44.61
74627;BME280;63132;52.268;5.192;2024-01-27T01:40:13;103238.91;;;12.08;44.99
74627;BME280;63132;52.268;5.192;2024-01-27T01:42:40;103249.31;;;12.11;44.85
74627;BME280;63132;52.268;5.192;2024-01-27T01:45:06;103247.97;;;12.21;45.01
74627;BME280;63132;52.268;5.192;2024-01-27T01:47:32;103241.19;;;12.34;44.75
74627;BME280;63132;52.268;5.192;2024-01-27T01:49:59;103245.88;;;12.02;45.69
74627;BME280;63132;52.268;5.192;2024-01-27T01:52:24;103239.31;;;12.23;45.06
74627;BME280;63132;52.268;5.192;2024-01-27T01:54:50;103255.06;;;12.18;44.87
74627;BME280;63132;52.268;5.192;2024-01-27T01:57:16;103249.34;;;11.99;45.34
74627;BME280;63132;52.268;5.192;2024-01-27T01:59:42;103246.44;;;12.08;45.25
74627;BME280;63132;52.268;5.192;2024-01-27T02:02:08;103253.88;;;12.19;45.08
74627;BME280;63132;52.268;5.192;2024-01-27T02:04:43;103257.28;;;12.13;45.08
74627;BME280;63132;52.268;5.192;2024-01-27T02:07:09;103249.84;;;12.17;45.35
74627;BME280;63132;52.268;5.192;2024-01-27T02:09:34;103260.34;;;12.08;45.29
74627;BME280;63132;52.268;5.192;2024-01-27T02:12:00;103258.75;;;11.95;45.40
74627;BME280;63132;52.268;5.192;2024-01-27T02:14:26;103266.63;;;12.20;44.68
74627;BME280;63132;52.268;5.192;2024-01-27T02:16:53;103255.22;;;12.10;45.16
74627;BME280;63132;52.268;5.192;2024-01-27T02:19:18;103259.53;;;12.07;45.42
74627;BME280;63132;52.268;5.192;2024-01-27T02:21:43;103259.56;;;11.95;45.43
74627;BME280;63132;52.268;5.192;2024-01-27T02:24:09;103257.31;;;11.85;45.43
74627;BME280;63132;52.268;5.192;2024-01-27T02:26:35;103263.44;;;12.06;45.22
74627;BME280;63132;52.268;5.192;2024-01-27T02:29:00;103252.53;;;12.13;45.57
74627;BME280;63132;52.268;5.192;2024-01-27T02:31:25;103252.09;;;12.11;44.66
74627;BME280;63132;52.268;5.192;2024-01-27T02:33:51;103261.41;;;12.19;45.36
74627;BME280;63132;52.268;5.192;2024-01-27T02:36:16;103264.75;;;11.97;45.31
74627;BME280;63132;52.268;5.192;2024-01-27T02:38:41;103269.72;;;12.03;45.19
74627;BME280;63132;52.268;5.192;2024-01-27T02:41:06;103264.81;;;12.12;44.95
74627;BME280;63132;52.268;5.192;2024-01-27T02:43:32;103263.91;;;12.08;45.48
74627;BME280;63132;52.268;5.192;2024-01-27T02:45:57;103264.97;;;12.04;45.15
74627;BME280;63132;52.268;5.192;2024-01-27T02:48:23;103264.16;;;12.03;44.95
74627;BME280;63132;52.268;5.192;2024-01-27T02:50:48;103256.69;;;11.91;44.87
74627;BME280;63132;52.268;5.192;2024-01-27T02:53:13;103253.78;;;12.00;45.46
74627;BME280;63132;52.268;5.192;2024-01-27T02:55:38;103250.06;;;12.24;44.89
74627;BME280;63132;52.268;5.192;2024-01-27T02:58:04;103252.88;;;12.12;45.24
74627;BME280;63132;52.268;5.192;2024-01-27T03:00:29;103257.56;;;12.08;44.47
74627;BME280;63132;52.268;5.192;2024-01-27T03:02:55;103257.81;;;12.03;45.09
74627;BME280;63132;52.268;5.192;2024-01-27T03:05:23;103262.06;;;11.72;46.39
74627;BME280;63132;52.268;5.192;2024-01-27T03:07:48;103263.75;;;12.17;45.77
74627;BME280;63132;52.268;5.192;2024-01-27T03:10:14;103265.53;;;12.09;44.72
74627;BME280;63132;52.268;5.192;2024-01-27T03:12:39;103268.31;;;12.09;44.98
74627;BME280;63132;52.268;5.192;2024-01-27T03:15:05;103246.41;;;11.92;45.55
74627;BME280;63132;52.268;5.192;2024-01-27T03:17:30;103256.69;;;11.91;45.27
74627;BME280;63132;52.268;5.192;2024-01-27T03:19:55;103251.75;;;11.85;45.33
74627;BME280;63132;52.268;5.192;2024-01-27T03:22:20;103257.81;;;12.03;44.96
74627;BME280;63132;52.268;5.192;2024-01-27T03:24:46;103260.03;;;11.97;44.77
74627;BME280;63132;52.268;5.192;2024-01-27T03:27:11;103254.97;;;11.87;45.21
74627;BME280;63132;52.268;5.192;2024-01-27T03:29:36;103263.44;;;11.78;45.69
74627;BME280;63132;52.268;5.192;2024-01-27T03:32:02;103263.81;;;11.64;44.88
74627;BME280;63132;52.268;5.192;2024-01-27T03:34:27;103265.59;;;11.57;45.16
74627;BME280;63132;52.268;5.192;2024-01-27T03:36:53;103266.63;;;11.52;45.54
74627;BME280;63132;52.268;5.192;2024-01-27T03:39:18;103262.25;;;11.39;44.96
74627;BME280;63132;52.268;5.192;2024-01-27T03:41:44;103264.22;;;11.38;45.84
74627;BME280;63132;52.268;5.192;2024-01-27T03:44:09;103272.91;;;11.37;44.57
74627;BME280;63132;52.268;5.192;2024-01-27T03:46:34;103274.78;;;11.33;45.05
74627;BME280;63132;52.268;5.192;2024-01-27T03:49:00;103273.38;;;11.27;45.48
74627;BME280;63132;52.268;5.192;2024-01-27T03:51:25;103268.16;;;11.37;45.54
74627;BME280;63132;52.268;5.192;2024-01-27T03:53:51;103267.72;;;11.35;45.61
74627;BME280;63132;52.268;5.192;2024-01-27T03:56:16;103275.22;;;11.47;45.56
74627;BME280;63132;52.268;5.192;2024-01-27T03:58:42;103277.28;;;11.38;46.08
74627;BME280;63132;52.268;5.192;2024-01-27T04:01:07;103264.34;;;11.42;46.30
74627;BME280;63132;52.268;5.192;2024-01-27T04:03:33;103272.22;;;11.40;46.09
74627;BME280;63132;52.268;5.192;2024-01-27T04:05:58;103263.78;;;11.36;47.15
74627;BME280;63132;52.268;5.192;2024-01-27T04:08:24;103261.78;;;11.49;46.77
74627;BME280;63132;52.268;5.192;2024-01-27T04:10:49;103271.19;;;11.73;45.70
74627;BME280;63132;52.268;5.192;2024-01-27T04:13:15;103275.50;;;11.70;45.44
74627;BME280;63132;52.268;5.192;2024-01-27T04:15:40;103270.63;;;11.67;45.84
74627;BME280;63132;52.268;5.192;2024-01-27T04:18:06;103270.94;;;11.90;44.79
74627;BME280;63132;52.268;5.192;2024-01-27T04:20:36;103279.28;;;11.78;45.96
74627;BME280;63132;52.268;5.192;2024-01-27T04:23:02;103271.72;;;11.90;44.89
74627;BME280;63132;52.268;5.192;2024-01-27T04:25:27;103274.53;;;11.78;45.00
74627;BME280;63132;52.268;5.192;2024-01-27T04:27:53;103283.09;;;11.85;45.79
74627;BME280;63132;52.268;5.192;2024-01-27T04:30:19;103282.88;;;11.78;45.04
74627;BME280;63132;52.268;5.192;2024-01-27T04:32:44;103284.97;;;11.81;45.15
74627;BME280;63132;52.268;5.192;2024-01-27T04:35:10;103290.38;;;11.78;45.58
74627;BME280;63132;52.268;5.192;2024-01-27T04:37:36;103296.19;;;11.60;46.24
74627;BME280;63132;52.268;5.192;2024-01-27T04:40:04;103291.72;;;11.56;45.54
74627;BME280;63132;52.268;5.192;2024-01-27T04:42:31;103297.84;;;11.49;45.92
74627;BME280;63132;52.268;5.192;2024-01-27T04:44:57;103300.38;;;11.54;45.75
74627;BME280;63132;52.268;5.192;2024-01-27T04:47:22;103302.25;;;11.50;45.28
74627;BME280;63132;52.268;5.192;2024-01-27T04:49:47;103305.03;;;11.38;45.09
74627;BME280;63132;52.268;5.192;2024-01-27T04:52:13;103293.72;;;11.31;45.06
74627;BME280;63132;52.268;5.192;2024-01-27T04:54:38;103292.81;;;11.27;45.29
74627;BME280;63132;52.268;5.192;2024-01-27T04:57:03;103292.94;;;11.18;45.91
74627;BME280;63132;52.268;5.192;2024-01-27T04:59:30;103286.69;;;10.97;46.72
74627;BME280;63132;52.268;5.192;2024-01-27T05:01:55;103279.16;;;10.85;47.48
74627;BME280;63132;52.268;5.192;2024-01-27T05:04:20;103284.84;;;11.01;45.75
74627;BME280;63132;52.268;5.192;2024-01-27T05:06:46;103285.78;;;11.05;45.91
74627;BME280;63132;52.268;5.192;2024-01-27T05:09:11;103290.38;;;11.01;45.87
74627;BME280;63132;52.268;5.192;2024-01-27T05:11:37;103290.63;;;10.96;45.80
74627;BME280;63132;52.268;5.192;2024-01-27T05:14:02;103292.53;;;10.46;45.63
74627;BME280;63132;52.268;5.192;2024-01-27T05:16:28;103297.34;;;10.49;45.85
74627;BME280;63132;52.268;5.192;2024-01-27T05:18:53;103291.78;;;10.82;46.19
74627;BME280;63132;52.268;5.192;2024-01-27T05:21:19;103290.03;;;10.90;45.95
74627;BME280;63132;52.268;5.192;2024-01-27T05:23:44;103288.53;;;10.80;45.69
74627;BME280;63132;52.268;5.192;2024-01-27T05:26:10;103284.72;;;10.73;45.35
74627;BME280;63132;52.268;5.192;2024-01-27T05:28:39;103280.34;;;10.84;46.14
74627;BME280;63132;52.268;5.192;2024-01-27T05:31:07;103266.00;;;10.70;45.85
74627;BME280;63132;52.268;5.192;2024-01-27T05:33:36;103273.63;;;10.73;46.11
74627;BME280;63132;52.268;5.192;2024-01-27T05:36:02;103257.91;;;10.77;45.65
74627;BME280;63132;52.268;5.192;2024-01-27T05:38:28;103266.72;;;11.03;44.97
74627;BME280;63132;52.268;5.192;2024-01-27T05:40:55;103267.25;;;11.09;45.48
74627;BME280;63132;52.268;5.192;2024-01-27T05:43:20;103272.94;;;11.13;46.10
74627;BME280;63132;52.268;5.192;2024-01-27T05:45:46;103276.06;;;11.11;45.96
74627;BME280;63132;52.268;5.192;2024-01-27T05:48:11;103272.00;;;11.08;45.23
74627;BME280;63132;52.268;5.192;2024-01-27T05:50:36;103275.00;;;11.16;46.03
74627;BME280;63132;52.268;5.192;2024-01-27T05:53:02;103276.75;;;11.08;46.02
74627;BME280;63132;52.268;5.192;2024-01-27T05:55:27;103277.66;;;11.24;45.56
74627;BME280;63132;52.268;5.192;2024-01-27T05:57:53;103279.38;;;11.17;45.26
74627;BME280;63132;52.268;5.192;2024-01-27T06:00:20;103270.34;;;11.32;44.97
74627;BME280;63132;52.268;5.192;2024-01-27T06:02:45;103261.72;;;11.21;45.72
74627;BME280;63132;52.268;5.192;2024-01-27T06:05:10;103263.22;;;11.19;45.21
74627;BME280;63132;52.268;5.192;2024-01-27T06:07:40;103268.28;;;11.17;45.66
74627;BME280;63132;52.268;5.192;2024-01-27T06:10:09;103275.44;;;11.30;45.50
74627;BME280;63132;52.268;5.192;2024-01-27T06:12:35;103279.38;;;11.41;45.61
74627;BME280;63132;52.268;5.192;2024-01-27T06:15:01;103279.03;;;11.43;45.68
74627;BME280;63132;52.268;5.192;2024-01-27T06:17:26;103277.31;;;11.26;45.29
74627;BME280;63132;52.268;5.192;2024-01-27T06:19:52;103278.34;;;11.33;45.69
74627;BME280;63132;52.268;5.192;2024-01-27T06:22:17;103280.19;;;11.42;45.08
74627;BME280;63132;52.268;5.192;2024-01-27T06:24:43;103275.44;;;11.30;45.54
74627;BME280;63132;52.268;5.192;2024-01-27T06:27:11;103285.97;;;11.36;45.93
74627;BME280;63132;52.268;5.192;2024-01-27T06:29:37;103287.03;;;11.07;46.88
74627;BME280;63132;52.268;5.192;2024-01-27T06:32:02;103271.81;;;11.54;45.18
74627;BME280;63132;52.268;5.192;2024-01-27T06:34:28;103282.59;;;11.55;46.00
74627;BME280;63132;52.268;5.192;2024-01-27T06:36:53;103270.94;;;11.37;46.51
74627;BME280;63132;52.268;5.192;2024-01-27T06:39:19;103268.50;;;11.36;45.61
74627;BME280;63132;52.268;5.192;2024-01-27T06:41:45;103275.22;;;11.47;45.28
74627;BME280;63132;52.268;5.192;2024-01-27T06:44:10;103266.91;;;11.35;46.55
74627;BME280;63132;52.268;5.192;2024-01-27T06:46:36;103262.88;;;11.32;45.93
74627;BME280;63132;52.268;5.192;2024-01-27T06:49:01;103272.81;;;11.33;45.95
74627;BME280;63132;52.268;5.192;2024-01-27T06:51:27;103270.63;;;11.27;46.30
74627;BME280;63132;52.268;5.192;2024-01-27T06:53:52;103279.38;;;11.17;46.11
74627;BME280;63132;52.268;5.192;2024-01-27T06:56:17;103271.28;;;11.24;45.99
74627;BME280;63132;52.268;5.192;2024-01-27T06:58:43;103271.56;;;11.19;45.20
74627;BME280;63132;52.268;5.192;2024-01-27T07:01:08;103268.44;;;11.20;46.13
74627;BME280;63132;52.268;5.192;2024-01-27T07:03:34;103272.50;;;11.11;45.04
74627;BME280;63132;52.268;5.192;2024-01-27T07:05:59;103282.63;;;10.94;45.31
74627;BME280;63132;52.268;5.192;2024-01-27T07:08:27;103284.94;;;10.80;45.96
74627;BME280;63132;52.268;5.192;2024-01-27T07:10:52;103286.44;;;10.77;46.21
74627;BME280;63132;52.268;5.192;2024-01-27T07:13:18;103284.25;;;10.71;46.27
74627;BME280;63132;52.268;5.192;2024-01-27T07:15:43;103282.88;;;10.89;46.10
74627;BME280;63132;52.268;5.192;2024-01-27T07:18:09;103291.41;;;10.84;46.20
74627;BME280;63132;52.268;5.192;2024-01-27T07:20:36;103296.50;;;10.82;45.83
74627;BME280;63132;52.268;5.192;2024-01-27T07:23:01;103295.13;;;10.88;46.34
74627;BME280;63132;52.268;5.192;2024-01-27T07:25:27;103295.91;;;11.01;45.85
74627;BME280;63132;52.268;5.192;2024-01-27T07:27:53;103302.28;;;11.01;46.22
74627;BME280;63132;52.268;5.192;2024-01-27T07:30:19;103310.72;;;10.93;45.61
74627;BME280;63132;52.268;5.192;2024-01-27T07:32:44;103307.34;;;10.75;45.52
74627;BME280;63132;52.268;5.192;2024-01-27T07:35:09;103309.00;;;10.88;45.89
74627;BME280;63132;52.268;5.192;2024-01-27T07:37:35;103312.91;;;10.87;46.11
74627;BME280;63132;52.268;5.192;2024-01-27T07:40:01;103312.91;;;10.87;45.57
74627;BME280;63132;52.268;5.192;2024-01-27T07:42:27;103316.97;;;10.90;45.73
74627;BME280;63132;52.268;5.192;2024-01-27T07:44:52;103311.28;;;10.86;45.68
74627;BME280;63132;52.268;5.192;2024-01-27T07:47:18;103317.75;;;10.90;46.42
74627;BME280;63132;52.268;5.192;2024-01-27T07:49:43;103315.91;;;10.94;45.61
74627;BME280;63132;52.268;5.192;2024-01-27T07:52:10;103313.94;;;11.07;45.46
74627;BME280;63132;52.268;5.192;2024-01-27T07:54:35;103324.13;;;11.15;46.15
74627;BME280;63132;52.268;5.192;2024-01-27T07:57:04;103318.25;;;11.04;46.25
74627;BME280;63132;52.268;5.192;2024-01-27T07:59:30;103311.53;;;11.05;46.17
74627;BME280;63132;52.268;5.192;2024-01-27T08:01:55;103329.53;;;11.24;45.29
74627;BME280;63132;52.268;5.192;2024-01-27T08:04:20;103323.53;;;11.34;45.39
74627;BME280;63132;52.268;5.192;2024-01-27T08:06:47;103326.19;;;11.43;46.18
74627;BME280;63132;52.268;5.192;2024-01-27T08:09:13;103313.56;;;11.45;45.25
74627;BME280;63132;52.268;5.192;2024-01-27T08:11:39;103319.88;;;11.82;45.25
74627;BME280;63132;52.268;5.192;2024-01-27T08:14:04;103323.47;;;11.83;46.10
74627;BME280;63132;52.268;5.192;2024-01-27T08:16:29;103324.63;;;11.82;45.23
74627;BME280;63132;52.268;5.192;2024-01-27T08:18:55;103328.81;;;12.16;45.78
74627;BME280;63132;52.268;5.192;2024-01-27T08:21:20;103328.69;;;12.40;45.94
74627;BME280;63132;52.268;5.192;2024-01-27T08:23:46;103325.50;;;12.54;45.87
74627;BME280;63132;52.268;5.192;2024-01-27T08:26:11;103328.34;;;12.58;44.90
74627;BME280;63132;52.268;5.192;2024-01-27T08:28:36;103325.50;;;12.70;45.32
74627;BME280;63132;52.268;5.192;2024-01-27T08:31:02;103327.03;;;12.83;44.94
74627;BME280;63132;52.268;5.192;2024-01-27T08:33:28;103322.53;;;12.94;43.67
74627;BME280;63132;52.268;5.192;2024-01-27T08:35:53;103331.50;;;12.88;44.69
74627;BME280;63132;52.268;5.192;2024-01-27T08:38:19;103328.47;;;12.93;45.29
74627;BME280;63132;52.268;5.192;2024-01-27T08:40:44;103326.13;;;13.11;46.42
74627;BME280;63132;52.268;5.192;2024-01-27T08:43:10;103322.69;;;13.49;45.26
74627;BME280;63132;52.268;5.192;2024-01-27T08:45:37;103320.28;;;13.67;44.76
74627;BME280;63132;52.268;5.192;2024-01-27T08:48:02;103338.94;;;13.47;45.92
74627;BME280;63132;52.268;5.192;2024-01-27T08:50:28;103337.44;;;13.69;44.34
74627;BME280;63132;52.268;5.192;2024-01-27T08:52:53;103342.28;;;13.72;44.17
74627;BME280;63132;52.268;5.192;2024-01-27T08:55:19;103335.50;;;13.89;44.73
74627;BME280;63132;52.268;5.192;2024-01-27T08:57:47;103324.19;;;13.81;44.64
74627;BME280;63132;52.268;5.192;2024-01-27T09:00:13;103328.53;;;13.79;44.62
74627;BME280;63132;52.268;5.192;2024-01-27T09:02:40;103331.34;;;13.63;45.08
74627;BME280;63132;52.268;5.192;2024-01-27T09:05:05;103336.41;;;13.57;44.49
74627;BME280;63132;52.268;5.192;2024-01-27T09:07:31;103329.56;;;13.20;44.83
74627;BME280;63132;52.268;5.192;2024-01-27T09:09:57;103335.81;;;13.01;45.18
74627;BME280;63132;52.268;5.192;2024-01-27T09:12:22;103332.78;;;13.06;45.38
74627;BME280;63132;52.268;5.192;2024-01-27T09:14:47;103342.72;;;13.07;45.90
74627;BME280;63132;52.268;5.192;2024-01-27T09:17:13;103347.31;;;13.15;45.81
74627;BME280;63132;52.268;5.192;2024-01-27T09:19:38;103347.75;;;13.17;45.38
74627;BME280;63132;52.268;5.192;2024-01-27T09:22:03;103344.72;;;13.22;44.72
74627;BME280;63132;52.268;5.192;2024-01-27T09:24:29;103346.88;;;13.13;44.99
74627;BME280;63132;52.268;5.192;2024-01-27T09:26:54;103346.50;;;13.15;45.37
74627;BME280;63132;52.268;5.192;2024-01-27T09:29:19;103349.84;;;13.20;45.09
74627;BME280;63132;52.268;5.192;2024-01-27T09:31:45;103345.69;;;13.14;44.17
74627;BME280;63132;52.268;5.192;2024-01-27T09:34:10;103353.44;;;13.21;45.43
74627;BME280;63132;52.268;5.192;2024-01-27T09:36:36;103355.28;;;13.17;44.39
74627;BME280;63132;52.268;5.192;2024-01-27T09:39:01;103350.53;;;13.17;45.36
74627;BME280;63132;52.268;5.192;2024-01-27T09:41:29;103360.97;;;13.20;44.71
74627;BME280;63132;52.268;5.192;2024-01-27T09:44:01;103369.75;;;13.07;46.23
74627;BME280;63132;52.268;5.192;2024-01-27T09:46:28;103375.56;;;13.17;46.93
74627;BME280;63132;52.268;5.192;2024-01-27T09:48:54;103370.31;;;13.28;45.72
74627;BME280;63132;52.268;5.192;2024-01-27T09:51:19;103380.13;;;13.10;47.46
74627;BME280;63132;52.268;5.192;2024-01-27T09:53:45;103384.19;;;12.96;48.27
74627;BME280;63132;52.268;5.192;2024-01-27T09:56:12;103382.13;;;13.41;46.34
74627;BME280;63132;52.268;5.192;2024-01-27T09:58:43;103391.66;;;13.24;47.17
74627;BME280;63132;52.268;5.192;2024-01-27T10:01:09;103393.88;;;13.66;46.87
74627;BME280;63132;52.268;5.192;2024-01-27T10:03:37;103390.69;;;12.72;46.97
74627;BME280;63132;52.268;5.192;2024-01-27T10:06:07;103398.50;;;13.42;47.29
74627;BME280;63132;52.268;5.192;2024-01-27T10:08:33;103402.81;;;14.10;45.55
74627;BME280;63132;52.268;5.192;2024-01-27T10:10:58;103395.47;;;13.67;45.97
74627;BME280;63132;52.268;5.192;2024-01-27T10:13:24;103405.44;;;14.03;44.72
74627;BME280;63132;52.268;5.192;2024-01-27T10:16:19;103397.53;;;14.24;45.63
74627;BME280;63132;52.268;5.192;2024-01-27T10:18:44;103401.13;;;13.70;45.61
74627;BME280;63132;52.268;5.192;2024-01-27T10:23:39;103406.69;;;13.70;46.68
74627;BME280;63132;52.268;5.192;2024-01-27T10:26:05;103404.28;;;14.04;46.19
74627;BME280;63132;52.268;5.192;2024-01-27T10:28:30;103407.38;;;14.18;44.45
74627;BME280;63132;52.268;5.192;2024-01-27T10:31:08;103409.75;;;14.00;45.29
74627;BME280;63132;52.268;5.192;2024-01-27T10:33:33;103409.13;;;14.26;45.16
74627;BME280;63132;52.268;5.192;2024-01-27T10:35:58;103407.69;;;13.62;46.57
74627;BME280;63132;52.268;5.192;2024-01-27T10:38:37;103406.47;;;13.95;46.76
74627;BME280;63132;52.268;5.192;2024-01-27T10:41:08;103404.94;;;14.36;45.49
74627;BME280;63132;52.268;5.192;2024-01-27T10:43:38;103400.94;;;13.63;46.47
74627;BME280;63132;52.268;5.192;2024-01-27T10:46:08;103398.63;;;14.20;45.96
74627;BME280;63132;52.268;5.192;2024-01-27T10:48:36;103390.50;;;14.30;45.56
74627;BME280;63132;52.268;5.192;2024-01-27T10:51:09;103395.22;;;13.91;45.57
74627;BME280;63132;52.268;5.192;2024-01-27T10:53:37;103386.47;;;14.08;46.11
74627;BME280;63132;52.268;5.192;2024-01-27T10:56:05;103383.91;;;14.81;44.57
74627;BME280;63132;52.268;5.192;2024-01-27T10:58:34;103394.53;;;14.94;44.44
74627;BME280;63132;52.268;5.192;2024-01-27T11:01:10;103390.38;;;15.08;44.18
74627;BME280;63132;52.268;5.192;2024-01-27T11:03:38;103395.72;;;14.51;44.87
74627;BME280;63132;52.268;5.192;2024-01-27T11:06:05;103398.53;;;13.97;46.20
74627;BME280;63132;52.268;5.192;2024-01-27T11:08:33;103397.69;;;14.70;44.80
74627;BME280;63132;52.268;5.192;2024-01-27T11:10:59;103395.25;;;14.68;44.46
74627;BME280;63132;52.268;5.192;2024-01-27T11:13:25;103391.81;;;14.56;44.32
74627;BME280;63132;52.268;5.192;2024-01-27T11:15:54;103396.13;;;15.18;43.91
74627;BME280;63132;52.268;5.192;2024-01-27T11:18:20;103393.56;;;15.06;42.88
74627;BME280;63132;52.268;5.192;2024-01-27T11:20:45;103397.69;;;14.31;45.52
74627;BME280;63132;52.268;5.192;2024-01-27T11:23:14;103394.47;;;15.14;43.97
74627;BME280;63132;52.268;5.192;2024-01-27T11:25:40;103388.63;;;14.77;43.77
74627;BME280;63132;52.268;5.192;2024-01-27T11:28:13;103389.97;;;15.32;43.84
74627;BME280;63132;52.268;5.192;2024-01-27T11:30:39;103385.66;;;15.12;43.58
74627;BME280;63132;52.268;5.192;2024-01-27T11:33:05;103385.53;;;15.28;43.59
74627;BME280;63132;52.268;5.192;2024-01-27T11:35:31;103391.06;;;15.01;42.87
74627;BME280;63132;52.268;5.192;2024-01-27T11:37:56;103382.66;;;15.73;41.73
74627;BME280;63132;52.268;5.192;2024-01-27T11:40:21;103376.97;;;15.66;41.90
74627;BME280;63132;52.268;5.192;2024-01-27T11:42:59;103378.38;;;15.80;41.97
74627;BME280;63132;52.268;5.192;2024-01-27T11:45:25;103375.56;;;15.80;42.39
74627;BME280;63132;52.268;5.192;2024-01-27T11:47:52;103373.84;;;15.45;41.61
74627;BME280;63132;52.268;5.192;2024-01-27T11:50:18;103363.44;;;15.19;42.70
74627;BME280;63132;52.268;5.192;2024-01-27T11:52:44;103368.97;;;15.65;41.71
74627;BME280;63132;52.268;5.192;2024-01-27T11:55:09;103368.53;;;15.36;41.74
74627;BME280;63132;52.268;5.192;2024-01-27T11:57:34;103365.44;;;15.18;41.62
74627;BME280;63132;52.268;5.192;2024-01-27T12:00:00;103369.03;;;15.68;41.52
74627;BME280;63132;52.268;5.192;2024-01-27T12:02:25;103370.16;;;15.41;41.27
74627;BME280;63132;52.268;5.192;2024-01-27T12:04:51;103372.19;;;15.67;41.84
74627;BME280;63132;52.268;5.192;2024-01-27T12:07:16;103362.34;;;15.50;40.96
74627;BME280;63132;52.268;5.192;2024-01-27T12:09:45;103358.66;;;15.19;41.75
74627;BME280;63132;52.268;5.192;2024-01-27T12:12:12;103355.63;;;14.82;42.11
74627;BME280;63132;52.268;5.192;2024-01-27T12:14:44;103358.97;;;15.37;41.51
74627;BME280;63132;52.268;5.192;2024-01-27T12:17:10;103357.56;;;15.77;40.38
74627;BME280;63132;52.268;5.192;2024-01-27T12:19:37;103348.22;;;15.39;40.42
74627;BME280;63132;52.268;5.192;2024-01-27T12:22:03;103336.44;;;14.77;40.91
74627;BME280;63132;52.268;5.192;2024-01-27T12:24:28;103343.91;;;14.50;41.88
74627;BME280;63132;52.268;5.192;2024-01-27T12:26:55;103345.34;;;15.89;39.91
74627;BME280;63132;52.268;5.192;2024-01-27T12:29:22;103340.88;;;15.81;40.48
74627;BME280;63132;52.268;5.192;2024-01-27T12:31:47;103337.16;;;15.73;40.25
74627;BME280;63132;52.268;5.192;2024-01-27T12:34:13;103332.53;;;15.58;40.22
74627;BME280;63132;52.268;5.192;2024-01-27T12:36:42;103338.59;;;15.63;40.46
74627;BME280;63132;52.268;5.192;2024-01-27T12:39:08;103344.56;;;15.35;40.17
74627;BME280;63132;52.268;5.192;2024-01-27T12:41:34;103343.75;;;16.21;39.85
74627;BME280;63132;52.268;5.192;2024-01-27T12:43:59;103340.16;;;15.87;39.60
74627;BME280;63132;52.268;5.192;2024-01-27T12:46:25;103350.84;;;16.12;39.17